Time;durP1;ratioP1;P1;durP2;ratioP2;P2;SDS_P1;SDS_P2;PMS_P1;PMS_P2;Temp;Humidity;BMP_temperature;BMP_pressure;BME280_temperature;BME280_humidity;BME280_pressure;Samples;Min_cycle;Max_cycle;Signal;HPM_P1;HPM_P2
2021/10/27 00:00:09;;;;;;;;;;;;;;;9.31;100.00;101432.59;5094800;28;20366;-73
2021/10/27 00:02:39;;;;;;;;;;;;;;;9.35;100.00;101447.66;5091718;28;19925;-73
2021/10/27 00:05:06;;;;;;;;;;;;;;;9.37;100.00;101448.47;5094637;28;19979;-73
2021/10/27 00:07:33;;;;;;;;;;;;;;;9.44;100.00;101443.50;5094130;28;20027;-73
2021/10/27 00:10:00;;;;;;;;;;;;;;;9.47;100.00;101441.44;5094589;28;19955;-73
2021/10/27 00:12:26;;;;;;;;;;;;;;;9.53;100.00;101453.75;5094459;28;19965;-73
2021/10/27 00:14:52;;;;;;;;;;;;;;;9.55;100.00;101446.38;5094496;28;19924;-73
2021/10/27 00:17:20;;;;;;;;;;;;;;;9.61;100.00;101445.13;5094523;28;20375;-73
2021/10/27 00:19:47;;;;;;;;;;;;;;;9.62;100.00;101449.56;5094137;28;19928;-73
2021/10/27 00:22:13;;;;;;;;;;;;;;;9.63;100.00;101452.16;5094081;28;19969;-73
2021/10/27 00:24:39;;;;;;;;;;;;;;;9.62;100.00;101455.88;5110028;28;20371;-73
2021/10/27 00:27:07;;;;;;;;;;;;;;;9.61;100.00;101455.97;5094297;28;19970;-73
2021/10/27 00:29:33;;;;;;;;;;;;;;;9.66;100.00;101443.84;5094186;28;20263;-73
2021/10/27 00:32:00;;;;;;;;;;;;;;;9.68;100.00;101441.88;5093996;28;19931;-73
2021/10/27 00:34:28;;;;;;;;;;;;;;;9.68;100.00;101441.88;5094127;28;20014;-73
2021/10/27 00:36:54;;;;;;;;;;;;;;;9.70;100.00;101450.81;5093923;28;19928;-73
2021/10/27 00:39:20;;;;;;;;;;;;;;;9.69;100.00;101442.78;5093731;28;19963;-73
2021/10/27 00:41:47;;;;;;;;;;;;;;;9.63;100.00;101444.03;5093787;28;19924;-73
2021/10/27 00:44:20;;;;;;;;;;;;;;;9.58;100.00;101440.78;5094009;28;19960;-73
2021/10/27 00:46:46;;;;;;;;;;;;;;;9.51;100.00;101434.88;5093555;28;20039;-73
2021/10/27 00:49:12;;;;;;;;;;;;;;;9.50;100.00;101433.13;5093750;28;20303;-73
2021/10/27 00:51:40;;;;;;;;;;;;;;;9.48;100.00;101443.19;5093789;28;20018;-73
2021/10/27 00:54:06;;;;;;;;;;;;;;;9.51;100.00;101437.59;5093484;28;20027;-73
2021/10/27 00:56:33;;;;;;;;;;;;;;;9.49;100.00;101441.38;5093021;28;19971;-73
2021/10/27 00:58:59;;;;;;;;;;;;;;;9.41;100.00;101436.44;5093570;28;19963;-73
2021/10/27 01:01:25;;;;;;;;;;;;;;;9.34;100.00;101441.41;5093562;28;20114;-73
2021/10/27 01:03:51;;;;;;;;;;;;;;;9.30;100.00;101439.84;5093505;28;20389;-73
2021/10/27 01:06:18;;;;;;;;;;;;;;;9.30;100.00;101452.50;5093340;28;20010;-73
2021/10/27 01:08:46;;;;;;;;;;;;;;;9.27;100.00;101448.16;5093364;28;19963;-73
2021/10/27 01:11:12;;;;;;;;;;;;;;;9.26;100.00;101448.25;5093459;28;19928;-73
2021/10/27 01:13:38;;;;;;;;;;;;;;;9.25;100.00;101443.84;5092869;28;20379;-73
2021/10/27 01:16:05;;;;;;;;;;;;;;;9.26;100.00;101445.56;5093176;28;19990;-73
2021/10/27 01:18:32;;;;;;;;;;;;;;;9.26;100.00;101445.56;5093171;28;19924;-73
2021/10/27 01:20:59;;;;;;;;;;;;;;;9.28;100.00;101444.50;5093139;28;20015;-73
2021/10/27 01:23:25;;;;;;;;;;;;;;;9.34;100.00;101443.22;5093020;28;20023;-73
2021/10/27 01:25:52;;;;;;;;;;;;;;;9.35;100.00;101443.16;5092814;28;20357;-73
2021/10/27 01:28:18;;;;;;;;;;;;;;;9.37;100.00;101440.31;5074986;28;20006;-73
2021/10/27 01:30:45;;;;;;;;;;;;;;;9.39;100.00;101432.94;5093092;28;19951;-73
2021/10/27 01:33:11;;;;;;;;;;;;;;;9.38;100.00;101442.06;5092504;28;19974;-73
2021/10/27 01:35:38;;;;;;;;;;;;;;;9.35;100.00;101435.00;5092985;28;19924;-73
2021/10/27 01:38:06;;;;;;;;;;;;;;;9.34;100.00;101425.13;5092702;28;19928;-73
2021/10/27 01:40:33;;;;;;;;;;;;;;;9.30;100.00;101431.72;5092698;28;20019;-73
2021/10/27 01:42:59;;;;;;;;;;;;;;;9.27;100.00;101431.03;5092150;28;19977;-73
2021/10/27 01:45:29;;;;;;;;;;;;;;;9.25;100.00;101433.88;5092848;28;20027;-73
2021/10/27 01:47:56;;;;;;;;;;;;;;;9.25;100.00;101430.28;5092670;28;20350;-73
2021/10/27 01:50:22;;;;;;;;;;;;;;;9.23;100.00;101430.38;5092642;28;20311;-73
2021/10/27 01:52:48;;;;;;;;;;;;;;;9.24;100.00;101432.13;5092107;28;20018;-73
2021/10/27 01:55:16;;;;;;;;;;;;;;;9.26;100.00;101418.47;5092483;28;20470;-73
2021/10/27 01:57:42;;;;;;;;;;;;;;;9.25;100.00;101424.88;5092379;28;20022;-73
2021/10/27 02:00:09;;;;;;;;;;;;;;;9.24;100.00;101420.41;5092363;28;20316;-73
2021/10/27 02:02:38;;;;;;;;;;;;;;;9.24;100.00;101417.72;5092345;28;19924;-73
2021/10/27 02:05:05;;;;;;;;;;;;;;;9.23;100.00;101413.25;5074380;28;19928;-73
2021/10/27 02:07:31;;;;;;;;;;;;;;;9.23;100.00;101414.09;5088727;28;19974;-73
2021/10/27 02:09:58;;;;;;;;;;;;;;;9.23;100.00;101414.09;5091631;28;19956;-73
2021/10/27 02:12:25;;;;;;;;;;;;;;;9.26;100.00;101407.63;5092081;28;20018;-73
2021/10/27 02:14:52;;;;;;;;;;;;;;;9.27;100.00;101415.66;5092095;28;19932;-73
2021/10/27 02:17:18;;;;;;;;;;;;;;;9.31;100.00;101419.03;5091881;28;19955;-73
2021/10/27 02:19:44;;;;;;;;;;;;;;;9.32;100.00;101412.66;5091886;28;19934;-73
2021/10/27 02:22:11;;;;;;;;;;;;;;;9.35;100.00;101417.88;5092121;28;20453;-73
2021/10/27 02:24:37;;;;;;;;;;;;;;;9.37;100.00;101424.06;5091850;28;19963;-73
2021/10/27 02:27:04;;;;;;;;;;;;;;;9.37;100.00;101413.22;5091554;28;20019;-73
2021/10/27 02:29:31;;;;;;;;;;;;;;;9.36;100.00;101419.63;5091768;28;20430;-73
2021/10/27 02:31:58;;;;;;;;;;;;;;;9.34;100.00;101417.00;5073870;28;19967;-73
2021/10/27 02:34:24;;;;;;;;;;;;;;;9.34;100.00;101421.53;5091696;28;20015;-73
2021/10/27 02:36:50;;;;;;;;;;;;;;;9.34;100.00;101421.53;5091454;28;19960;-73
2021/10/27 02:39:17;;;;;;;;;;;;;;;9.34;100.00;101424.25;5091776;28;20023;-73
2021/10/27 02:41:43;;;;;;;;;;;;;;;9.34;100.00;101427.84;5091451;28;19966;-73
2021/10/27 02:44:09;;;;;;;;;;;;;;;9.34;100.00;101422.44;5091825;28;20431;-73
2021/10/27 02:46:37;;;;;;;;;;;;;;;9.37;100.00;101421.38;5091253;28;19956;-73
2021/10/27 02:49:03;;;;;;;;;;;;;;;9.40;100.00;101423.00;5091716;28;20303;-73
2021/10/27 02:51:30;;;;;;;;;;;;;;;9.41;100.00;101424.72;5073380;28;19975;-73
2021/10/27 02:53:56;;;;;;;;;;;;;;;9.44;100.00;101422.69;5090844;28;20388;-73
2021/10/27 02:56:22;;;;;;;;;;;;;;;9.46;100.00;101428.00;5091291;28;20015;-73
2021/10/27 02:58:49;;;;;;;;;;;;;;;9.49;100.00;101428.69;5091258;28;20014;-73
2021/10/27 03:01:16;;;;;;;;;;;;;;;9.53;100.00;101432.06;5091384;28;19967;-73
2021/10/27 03:03:44;;;;;;;;;;;;;;;9.54;100.00;101426.53;5073335;28;19930;-73
2021/10/27 03:06:10;;;;;;;;;;;;;;;9.57;100.00;101427.28;5091361;28;20016;-73
2021/10/27 03:08:36;;;;;;;;;;;;;;;9.59;100.00;101433.50;5091466;28;19928;-73
2021/10/27 03:11:03;;;;;;;;;;;;;;;9.59;100.00;101438.91;5091575;28;20006;-73
2021/10/27 03:13:29;;;;;;;;;;;;;;;9.60;100.00;101440.66;5091180;28;20420;-73
2021/10/27 03:15:55;;;;;;;;;;;;;;;9.60;100.00;101430.69;5090943;28;20137;-73
2021/10/27 03:18:22;;;;;;;;;;;;;;;9.59;100.00;101433.50;5091033;28;20014;-73
2021/10/27 03:20:50;;;;;;;;;;;;;;;9.59;100.00;101428.94;5091056;28;19930;-73
2021/10/27 03:23:16;;;;;;;;;;;;;;;9.59;100.00;101430.78;5091328;28;19928;-73
2021/10/27 03:25:42;;;;;;;;;;;;;;;9.61;100.00;101439.69;5091115;28;19924;-73
2021/10/27 03:28:09;;;;;;;;;;;;;;;9.61;100.00;101435.13;5090971;28;20020;-73
2021/10/27 03:30:35;;;;;;;;;;;;;;;9.62;100.00;101427.88;5091218;28;20015;-73
2021/10/27 03:33:01;;;;;;;;;;;;;;;9.63;100.00;101437.75;5091290;28;19932;-73
2021/10/27 03:35:28;;;;;;;;;;;;;;;9.62;100.00;101433.28;5090690;28;20042;-73
2021/10/27 03:37:55;;;;;;;;;;;;;;;9.63;100.00;101435.88;5090974;28;19962;-73
2021/10/27 03:40:22;;;;;;;;;;;;;;;9.65;100.00;101433.97;5091245;28;20007;-73
2021/10/27 03:42:48;;;;;;;;;;;;;;;9.67;100.00;101434.75;5090946;28;19959;-73
2021/10/27 03:45:14;;;;;;;;;;;;;;;9.67;100.00;101431.16;5091013;28;19924;-73
2021/10/27 03:47:40;;;;;;;;;;;;;;;9.68;100.00;101427.47;5090760;28;20413;-73
2021/10/27 03:50:11;;;;;;;;;;;;;;;9.68;100.00;101419.34;5091105;28;20022;-73
2021/10/27 03:52:37;;;;;;;;;;;;;;;9.67;100.00;101423.00;5090875;28;19927;-73
2021/10/27 03:55:05;;;;;;;;;;;;;;;9.63;100.00;101414.19;5090700;28;19963;-73
2021/10/27 03:57:31;;;;;;;;;;;;;;;9.63;100.00;101421.47;5090748;28;19924;-73
2021/10/27 03:59:59;;;;;;;;;;;;;;;9.61;100.00;101418.03;5091253;28;20324;-73
2021/10/27 04:02:25;;;;;;;;;;;;;;;9.60;100.00;101422.56;5091095;28;19934;-73
2021/10/27 04:04:51;;;;;;;;;;;;;;;9.60;100.00;101427.97;5090771;28;19966;-73
2021/10/27 04:07:17;;;;;;;;;;;;;;;9.61;100.00;101428.88;5094214;28;20019;-73
2021/10/27 04:09:44;;;;;;;;;;;;;;;9.64;100.00;101431.34;5094379;28;20018;-73
2021/10/27 04:12:11;;;;;;;;;;;;;;;9.66;100.00;101435.72;5091171;28;19956;-73
2021/10/27 04:14:38;;;;;;;;;;;;;;;9.67;100.00;101433.84;5094079;28;19971;-74
2021/10/27 04:17:04;;;;;;;;;;;;;;;9.69;100.00;101437.34;5093754;28;19924;-74
2021/10/27 04:19:31;;;;;;;;;;;;;;;9.71;100.00;101439.00;5087766;28;19942;-73
2021/10/27 04:21:58;;;;;;;;;;;;;;;9.71;100.00;101441.69;5094222;28;19924;-73
2021/10/27 04:24:24;;;;;;;;;;;;;;;9.73;100.00;101444.31;5075861;28;20022;-73
2021/10/27 04:26:51;;;;;;;;;;;;;;;9.76;100.00;101444.09;5093500;28;19968;-73
2021/10/27 04:29:19;;;;;;;;;;;;;;;9.77;100.00;101445.84;5094212;28;19924;-74
2021/10/27 04:31:46;;;;;;;;;;;;;;;9.78;100.00;101449.41;5073823;28;19963;-73
2021/10/27 04:34:12;;;;;;;;;;;;;;;9.79;100.00;101448.44;5073321;28;19924;-73
2021/10/27 04:36:38;;;;;;;;;;;;;;;9.81;100.00;101454.66;5092134;28;20023;-73
2021/10/27 04:39:05;;;;;;;;;;;;;;;9.81;100.00;101452.78;5093839;28;20193;-73
2021/10/27 04:41:31;;;;;;;;;;;;;;;9.82;100.00;101450.94;5093315;28;19931;-73
2021/10/27 04:43:58;;;;;;;;;;;;;;;9.83;100.00;101458.97;5093673;28;19924;-73
2021/10/27 04:46:27;;;;;;;;;;;;;;;9.82;100.00;101459.06;5093231;28;19971;-73
2021/10/27 04:48:53;;;;;;;;;;;;;;;9.83;100.00;101461.69;5093438;28;19961;-73
2021/10/27 04:51:20;;;;;;;;;;;;;;;9.83;100.00;101456.25;5093362;28;19928;-73
2021/10/27 04:53:46;;;;;;;;;;;;;;;9.84;100.00;101466.13;5092938;28;20015;-73
2021/10/27 04:56:12;;;;;;;;;;;;;;;9.85;100.00;101458.91;5093389;28;20027;-73
2021/10/27 04:58:38;;;;;;;;;;;;;;;9.87;100.00;101460.53;5093159;28;20458;-73
2021/10/27 05:01:05;;;;;;;;;;;;;;;9.88;100.00;101462.25;5092925;28;20345;-73
2021/10/27 05:03:32;;;;;;;;;;;;;;;9.91;100.00;101457.59;5092956;28;19963;-73
2021/10/27 05:06:01;;;;;;;;;;;;;;;9.88;100.00;101450.53;5093026;28;20027;-73
2021/10/27 05:08:30;;;;;;;;;;;;;;;9.86;100.00;101450.66;5092915;28;19928;-73
2021/10/27 05:10:57;;;;;;;;;;;;;;;9.87;100.00;101435.25;5093297;28;19924;-73
2021/10/27 05:13:23;;;;;;;;;;;;;;;9.85;100.00;101431.78;5093046;28;19966;-74
2021/10/27 05:15:50;;;;;;;;;;;;;;;9.83;100.00;101437.28;5092431;28;19979;-73
2021/10/27 05:18:17;;;;;;;;;;;;;;;9.82;100.00;101442.81;5091682;28;20018;-73
2021/10/27 05:20:45;;;;;;;;;;;;;;;9.81;100.00;101438.38;5091407;28;19928;-73
2021/10/27 05:23:11;;;;;;;;;;;;;;;9.82;100.00;101440.09;5091914;28;19924;-73
2021/10/27 05:25:38;;;;;;;;;;;;;;;9.80;100.00;101434.78;5092650;28;19959;-73
2021/10/27 05:28:04;;;;;;;;;;;;;;;9.80;100.00;101437.50;5092952;28;19924;-73
2021/10/27 05:30:31;;;;;;;;;;;;;;;9.80;100.00;101439.34;5092341;28;20377;-73
2021/10/27 05:32:57;;;;;;;;;;;;;;;9.81;100.00;101435.66;5085843;28;19939;-73
2021/10/27 05:35:24;;;;;;;;;;;;;;;9.81;100.00;101435.66;5078708;28;20387;-73
2021/10/27 05:37:52;;;;;;;;;;;;;;;9.82;100.00;101443.69;5089571;28;19928;-73
2021/10/27 05:40:18;;;;;;;;;;;;;;;9.84;100.00;101449.88;5092079;28;20023;-73
2021/10/27 05:42:46;;;;;;;;;;;;;;;9.86;100.00;101449.75;5092045;28;20012;-73
2021/10/27 05:45:12;;;;;;;;;;;;;;;9.86;100.00;101452.47;5084971;28;20047;-73
2021/10/27 05:47:43;;;;;;;;;;;;;;;9.85;100.00;101450.75;5090868;28;20023;-73
2021/10/27 05:50:23;;;;;;;;;;;;;;;9.88;100.00;101447.84;5092450;28;19924;-73
2021/10/27 05:55:35;;;;;;;;;;;;;;;9.89;100.00;101450.44;5071693;28;19928;-73
2021/10/27 05:58:03;;;;;;;;;;;;;;;9.91;100.00;101446.75;5077648;28;20299;-73
2021/10/27 06:00:29;;;;;;;;;;;;;;;9.92;100.00;101453.94;5092480;28;19966;-73
2021/10/27 06:02:55;;;;;;;;;;;;;;;9.92;100.00;101454.78;5092247;28;19931;-73
2021/10/27 06:05:22;;;;;;;;;;;;;;;9.93;100.00;101459.25;5088465;28;19946;-75
2021/10/27 06:07:49;;;;;;;;;;;;;;;9.94;100.00;101465.53;5091871;28;20378;-73
2021/10/27 06:10:19;;;;;;;;;;;;;;;9.93;100.00;101456.53;5091730;28;19928;-73
2021/10/27 06:12:48;;;;;;;;;;;;;;;9.96;100.00;101463.59;5091590;28;19928;-73
2021/10/27 06:15:15;;;;;;;;;;;;;;;9.95;100.00;101468.13;5091947;28;19931;-72
2021/10/27 06:17:41;;;;;;;;;;;;;;;9.98;100.00;101472.47;5090982;28;20011;-74
2021/10/27 06:20:08;;;;;;;;;;;;;;;10.00;100.00;101473.25;5091430;28;20442;-74
2021/10/27 06:22:34;;;;;;;;;;;;;;;10.00;100.00;101482.25;5091380;28;20011;-74
2021/10/27 06:25:01;;;;;;;;;;;;;;;10.04;100.00;101491.06;5073392;28;19924;-74
2021/10/27 06:27:27;;;;;;;;;;;;;;;10.05;100.00;101482.81;5090099;28;20616;-74
2021/10/27 06:29:56;;;;;;;;;;;;;;;10.09;100.00;101482.59;5090072;28;19959;-74
2021/10/27 06:32:31;;;;;;;;;;;;;;;10.09;100.00;101488.94;5094506;28;19953;-74
2021/10/27 06:35:00;;;;;;;;;;;;;;;10.13;100.00;101490.47;5094781;28;19930;-73
2021/10/27 06:37:52;;;;;;;;;;;;;;;10.16;100.00;101489.38;5091582;28;19924;-74
2021/10/27 06:46:11;;;;;;;;;;;;;;;10.26;100.00;101484.19;5091147;28;19928;-75
2021/10/27 06:48:37;;;;;;;;;;;;;;;10.28;100.00;101485.84;5091288;28;19934;-74
2021/10/27 06:51:04;;;;;;;;;;;;;;;10.30;100.00;101489.31;5072867;28;19974;-74
2021/10/27 06:53:31;;;;;;;;;;;;;;;10.32;100.00;101495.50;5090754;28;20011;-74
2021/10/27 06:55:57;;;;;;;;;;;;;;;10.34;100.00;101503.53;5070631;28;19931;-74
2021/10/27 06:58:25;;;;;;;;;;;;;;;10.36;100.00;101497.06;5083575;28;20383;-74
2021/10/27 07:00:55;;;;;;;;;;;;;;;10.40;100.00;101500.44;5090655;28;20376;-74
2021/10/27 07:03:37;;;;;;;;;;;;;;;10.46;100.00;101499.16;5091122;28;20290;-74
2021/10/27 07:06:26;;;;;;;;;;;;;;;10.50;100.00;101498.84;5090442;28;19952;-75
2021/10/27 07:17:08;;;;;;;;;;;;;;;10.80;100.00;101499.53;5090606;28;19924;-72
2021/10/27 07:19:34;;;;;;;;;;;;;;;10.86;100.00;101504.53;5090305;28;20019;-73
2021/10/27 07:22:00;;;;;;;;;;;;;;;10.91;100.00;101490.63;5090908;28;20423;-73
2021/10/27 07:24:27;;;;;;;;;;;;;;;11.02;100.00;101499.78;5090605;28;20363;-73
2021/10/27 07:26:58;;;;;;;;;;;;;;;11.09;100.00;101494.78;5090591;28;19928;-73
2021/10/27 07:29:24;;;;;;;;;;;;;;;11.19;100.00;101500.41;5090198;28;19924;-73
2021/10/27 07:31:50;;;;;;;;;;;;;;;11.23;100.00;101500.06;5090912;28;20260;-73
2021/10/27 07:34:19;;;;;;;;;;;;;;;11.28;100.00;101501.59;5090926;28;19928;-73
2021/10/27 07:42:10;;;;;;;;;;;;;;;11.51;100.00;101516.25;5093999;28;19931;-73
2021/10/27 07:44:37;;;;;;;;;;;;;;;11.59;100.00;101508.38;5094578;28;20376;-73
2021/10/27 07:47:03;;;;;;;;;;;;;;;11.68;100.00;101496.84;5094164;28;20019;-73
2021/10/27 07:49:31;;;;;;;;;;;;;;;11.91;100.00;101507.00;5094515;28;20011;-73
2021/10/27 07:51:58;;;;;;;;;;;;;;;12.14;100.00;101508.88;5094477;28;19924;-73
2021/10/27 07:54:24;;;;;;;;;;;;;;;12.31;100.00;101499.44;5094018;28;19960;-73
2021/10/27 07:56:51;;;;;;;;;;;;;;;12.44;100.00;101512.09;5094174;28;20022;-73
2021/10/27 07:59:20;;;;;;;;;;;;;;;12.39;100.00;101505.16;5093839;28;20399;-73
2021/10/27 08:01:46;;;;;;;;;;;;;;;12.47;100.00;101510.03;5094193;28;19935;-73
2021/10/27 08:04:13;;;;;;;;;;;;;;;12.34;100.00;101517.41;5093657;28;19924;-73
2021/10/27 08:06:41;;;;;;;;;;;;;;;12.27;100.00;101518.88;5093784;28;19970;-73
2021/10/27 08:09:07;;;;;;;;;;;;;;;12.16;100.00;101512.38;5093510;28;19931;-73
2021/10/27 08:11:33;;;;;;;;;;;;;;;12.16;100.00;101517.81;5107056;28;19960;-73
2021/10/27 08:14:00;;;;;;;;;;;;;;;12.20;100.00;101524.75;5093822;28;20416;-73
2021/10/27 08:16:26;;;;;;;;;;;;;;;12.22;100.00;101527.34;5093673;28;20019;-74
2021/10/27 08:18:52;;;;;;;;;;;;;;;12.30;100.00;101521.34;5093578;28;20451;-74
2021/10/27 08:21:19;;;;;;;;;;;;;;;12.34;100.00;101520.13;5093367;28;20011;-74
2021/10/27 08:23:47;;;;;;;;;;;;;;;12.38;100.00;101519.75;5093615;28;19932;-74
2021/10/27 08:26:17;;;;;;;;;;;;;;;12.40;100.00;101511.50;5093731;28;20391;-74
2021/10/27 08:28:49;;;;;;;;;;;;;;;12.55;100.00;101507.56;5092569;28;19924;-74
2021/10/27 08:31:25;;;;;;;;;;;;;;;12.76;100.00;101511.47;5093164;28;20374;-74
2021/10/27 08:34:05;;;;;;;;;;;;;;;12.91;100.00;101510.28;5093578;28;19924;-78
2021/10/27 08:36:31;;;;;;;;;;;;;;;13.05;100.00;101515.50;5093220;28;20031;-75
2021/10/27 08:39:01;;;;;;;;;;;;;;;13.51;100.00;101513.69;5093248;28;19974;-75
2021/10/27 08:41:28;;;;;;;;;;;;;;;14.08;100.00;101510.88;5073402;28;19924;-76
2021/10/27 08:43:55;;;;;;;;;;;;;;;14.41;100.00;101517.22;5083549;28;20401;-73
2021/10/27 08:46:22;;;;;;;;;;;;;;;14.56;100.00;101506.84;5093148;28;19989;-75
2021/10/27 08:48:51;;;;;;;;;;;;;;;14.72;100.00;101507.28;5093081;28;19993;-74
2021/10/27 08:51:17;;;;;;;;;;;;;;;15.18;100.00;101507.84;5093421;28;19970;-74
2021/10/27 08:53:43;;;;;;;;;;;;;;;15.38;100.00;101497.88;5093119;28;20383;-76
2021/10/27 08:56:11;;;;;;;;;;;;;;;15.81;100.00;101498.63;5092699;28;20005;-73
2021/10/27 08:58:40;;;;;;;;;;;;;;;15.96;100.00;101498.22;5093241;28;19955;-74
2021/10/27 09:01:12;;;;;;;;;;;;;;;16.10;100.00;101503.31;5074946;28;19924;-74
2021/10/27 09:04:04;;;;;;;;;;;;;;;16.08;100.00;101505.31;5092696;28;19938;-74
2021/10/27 09:06:34;;;;;;;;;;;;;;;15.87;100.00;101519.09;5092966;28;19927;-72
2021/10/27 09:09:24;;;;;;;;;;;;;;;15.98;100.00;101515.38;5093048;28;19928;-75
2021/10/27 09:15:10;;;;;;;;;;;;;;;16.39;100.00;101527.09;5092837;28;19924;-74
2021/10/27 09:40:15;;;;;;;;;;;;;;;16.86;100.00;101535.47;5092198;28;20390;-74
2021/10/27 09:42:52;;;;;;;;;;;;;;;16.70;100.00;101536.06;5092314;28;19928;-74
2021/10/27 10:04:01;;;;;;;;;;;;;;;15.25;100.00;101542.88;5091388;28;20018;-74
2021/10/27 10:05:10;;;;;;;;;;;;;;;14.97;100.00;101546.16;5091858;28;19932;-76
2021/10/27 10:07:37;;;;;;;;;;;;;;;15.04;100.00;101546.47;5089805;28;19924;-74
2021/10/27 10:10:05;;;;;;;;;;;;;;;15.00;100.00;101553.22;5091633;28;19993;-73
2021/10/27 10:12:33;;;;;;;;;;;;;;;15.10;100.00;101561.47;5091522;28;19924;-74
2021/10/27 10:15:00;;;;;;;;;;;;;;;15.04;100.00;101562.88;5090701;28;20010;-74
2021/10/27 10:17:27;;;;;;;;;;;;;;;15.04;100.00;101557.41;5090349;28;19955;-75
2021/10/27 10:19:54;;;;;;;;;;;;;;;15.08;100.00;101564.34;5090766;28;20384;-73
2021/10/27 10:22:27;;;;;;;;;;;;;;;15.00;100.00;101558.69;5091706;28;19966;-73
2021/10/27 10:24:53;;;;;;;;;;;;;;;15.09;100.00;101557.88;5072857;28;20008;-75
2021/10/27 10:27:36;;;;;;;;;;;;;;;14.89;100.00;101560.47;5091016;28;20006;-74
2021/10/27 10:30:05;;;;;;;;;;;;;;;14.70;100.00;101552.16;5091611;28;19924;-74
2021/10/27 10:32:35;;;;;;;;;;;;;;;14.71;100.00;101575.72;5091046;28;19938;-74
2021/10/27 10:35:09;;;;;;;;;;;;;;;14.70;100.00;101568.53;5091320;28;20287;-74
2021/10/27 10:37:39;;;;;;;;;;;;;;;14.49;100.00;101568.47;5090940;28;19928;-74
2021/10/27 10:40:25;;;;;;;;;;;;;;;14.49;100.00;101571.19;5090922;28;20031;-74
2021/10/27 10:42:59;;;;;;;;;;;;;;;14.43;100.00;101582.63;5091030;28;19928;-74
2021/10/27 10:45:37;;;;;;;;;;;;;;;14.47;100.00;101584.09;5080009;28;19935;-75
2021/10/27 10:57:06;;;;;;;;;;;;;;;14.04;100.00;101594.91;5070075;28;19947;-74
2021/10/27 10:59:57;;;;;;;;;;;;;;;14.07;100.00;101594.63;5074279;28;20383;-74
2021/10/27 11:02:53;;;;;;;;;;;;;;;14.11;100.00;101591.63;5090790;28;19928;-76
2021/10/27 11:24:53;;;;;;;;;;;;;;;13.92;100.00;101601.34;5038257;28;19924;-75
2021/10/27 11:27:48;;;;;;;;;;;;;;;14.03;100.00;101587.69;5081626;28;20412;-74
2021/10/27 11:38:39;;;;;;;;;;;;;;;14.27;100.00;101572.13;5090673;28;19924;-75
2021/10/27 11:41:18;;;;;;;;;;;;;;;14.29;100.00;101578.34;5092963;28;19924;-74
2021/10/27 11:43:56;;;;;;;;;;;;;;;14.29;100.00;101578.34;5094817;28;19926;-73
2021/10/27 11:46:26;;;;;;;;;;;;;;;14.31;100.00;101581.78;5094126;28;19958;-74
2021/10/27 11:48:58;;;;;;;;;;;;;;;14.21;100.00;101574.38;5092756;28;20273;-74
2021/10/27 11:51:25;;;;;;;;;;;;;;;14.17;100.00;101582.94;5094363;28;20022;-74
2021/10/27 11:53:52;;;;;;;;;;;;;;;14.13;100.00;101581.47;5094223;28;19963;-74
2021/10/27 11:56:20;;;;;;;;;;;;;;;14.07;100.00;101571.94;5094384;28;19924;-74
2021/10/27 11:58:48;;;;;;;;;;;;;;;13.99;100.00;101575.28;5093949;28;19970;-74
2021/10/27 12:01:15;;;;;;;;;;;;;;;13.90;100.00;101566.00;5094429;28;19931;-74
2021/10/27 12:03:44;;;;;;;;;;;;;;;13.84;100.00;101569.25;5090776;28;20380;-73
2021/10/27 12:06:26;;;;;;;;;;;;;;;13.87;100.00;101566.25;5084747;28;19939;-73
2021/10/27 12:09:07;;;;;;;;;;;;;;;13.86;100.00;101563.66;5093794;28;19931;-73
2021/10/27 12:11:49;;;;;;;;;;;;;;;13.91;100.00;101561.41;5093984;28;20411;-73
2021/10/27 12:14:19;;;;;;;;;;;;;;;13.94;100.00;101560.31;5091085;28;19924;-73
2021/10/27 12:16:59;;;;;;;;;;;;;;;13.95;100.00;101556.56;5093359;28;20471;-73
2021/10/27 12:19:29;;;;;;;;;;;;;;;13.95;100.00;101553.81;5093415;28;19933;-73
2021/10/27 12:21:56;;;;;;;;;;;;;;;13.95;100.00;101551.09;5093892;28;19932;-73
2021/10/27 12:24:26;;;;;;;;;;;;;;;13.97;100.00;101551.84;5093745;28;19924;-73
2021/10/27 12:27:00;;;;;;;;;;;;;;;13.95;100.00;101553.81;5093113;28;19978;-73
2021/10/27 12:29:27;;;;;;;;;;;;;;;13.82;100.00;101541.19;5093769;28;19975;-74
2021/10/27 12:32:07;;;;;;;;;;;;;;;13.77;100.00;101542.56;5093741;28;20011;-73
2021/10/27 12:34:34;;;;;;;;;;;;;;;13.80;100.00;101545.03;5093754;28;20002;-73
2021/10/27 12:37:18;;;;;;;;;;;;;;;13.77;100.00;101543.44;5093967;28;20387;-73
2021/10/27 12:39:46;;;;;;;;;;;;;;;13.77;100.00;101542.56;5075009;28;19928;-74
2021/10/27 12:42:14;;;;;;;;;;;;;;;13.80;100.00;101537.75;5094137;28;19925;-72
2021/10/27 12:44:48;;;;;;;;;;;;;;;13.76;100.00;101538.97;5092705;28;19928;-72
2021/10/27 12:47:16;;;;;;;;;;;;;;;13.80;100.00;101539.59;5093291;28;19946;-73
2021/10/27 12:49:43;;;;;;;;;;;;;;;13.76;100.00;101538.09;5093730;28;19924;-74
2021/10/27 12:52:19;;;;;;;;;;;;;;;13.71;100.00;101538.50;5092531;28;19927;-73
2021/10/27 12:54:47;;;;;;;;;;;;;;;13.74;100.00;101543.69;5093822;28;19959;-72
2021/10/27 12:57:14;;;;;;;;;;;;;;;13.68;100.00;101545.06;5093252;28;19924;-71
2021/10/27 12:59:40;;;;;;;;;;;;;;;13.69;100.00;101541.31;5092200;28;19931;-71
2021/10/27 13:02:12;;;;;;;;;;;;;;;13.68;100.00;101553.25;5092724;28;19978;-72
2021/10/27 13:04:44;;;;;;;;;;;;;;;13.58;100.00;101543.22;5092626;28;19924;-72
2021/10/27 13:07:15;;;;;;;;;;;;;;;13.55;100.00;101549.78;5092461;28;19928;-72
2021/10/27 13:10:06;;;;;;;;;;;;;;;13.54;100.00;101543.44;5093452;28;19931;-72
2021/10/27 13:12:53;;;;;;;;;;;;;;;13.51;100.00;101542.84;5092851;28;20015;-72
2021/10/27 13:15:40;;;;;;;;;;;;;;;13.45;100.00;101544.19;5093395;28;19952;-72
2021/10/27 13:18:27;;;;;;;;;;;;;;;13.43;100.00;101543.47;5092967;28;19924;-72
2021/10/27 13:21:12;;;;;;;;;;;;;;;13.48;100.00;101543.06;5093453;28;20374;-72
2021/10/27 13:23:54;;;;;;;;;;;;;;;13.46;100.00;101542.34;5092901;28;20015;-73
2021/10/27 13:31:51;;;;;;;;;;;;;;;13.43;100.00;101531.66;5092741;28;19939;-73
2021/10/27 13:34:17;;;;;;;;;;;;;;;13.43;100.00;101545.28;5093162;28;19924;-72
2021/10/27 13:36:44;;;;;;;;;;;;;;;13.39;100.00;101533.78;5091941;28;19924;-72
2021/10/27 13:39:10;;;;;;;;;;;;;;;13.42;100.00;101538.13;5092289;28;19981;-72
2021/10/27 13:41:37;;;;;;;;;;;;;;;13.39;100.00;101534.66;5092613;28;19934;-72
2021/10/27 13:44:10;;;;;;;;;;;;;;;13.44;100.00;101541.59;5089569;28;19931;-72
2021/10/27 13:57:54;;;;;;;;;;;;;;;13.46;100.00;101529.56;5091820;28;20381;-73
2021/10/27 14:06:07;;;;;;;;;;;;;;;13.46;100.00;101535.03;5082123;28;19939;-73
2021/10/27 14:08:43;;;;;;;;;;;;;;;13.48;100.00;101527.59;5074607;28;19924;-73
2021/10/27 14:11:15;;;;;;;;;;;;;;;13.47;100.00;101524.97;5092293;28;19977;-73
2021/10/27 14:13:57;;;;;;;;;;;;;;;13.46;100.00;101535.03;5092438;28;19924;-72
2021/10/27 14:16:51;;;;;;;;;;;;;;;13.46;100.00;101528.72;5091817;28;20310;-73
2021/10/27 14:19:43;;;;;;;;;;;;;;;13.45;100.00;101529.69;5071800;28;20400;-73
2021/10/27 14:22:34;;;;;;;;;;;;;;;13.47;100.00;101533.16;5088824;28;20003;-72
2021/10/27 14:47:13;;;;;;;;;;;;;;;13.36;100.00;101529.44;5091518;28;20406;-73
2021/10/27 15:20:12;;;;;;;;;;;;;;;13.09;100.00;101540.66;5081312;28;19924;-72
2021/10/27 15:22:54;;;;;;;;;;;;;;;13.09;100.00;101551.56;5085429;28;19928;-72
2021/10/27 15:33:55;;;;;;;;;;;;;;;12.99;100.00;101553.28;5046008;28;19972;-68
2021/10/27 15:36:27;;;;;;;;;;;;;;;12.95;100.00;101551.75;5070049;28;19986;-68
2021/10/27 15:41:58;;;;;;;;;;;;;;;12.90;100.00;101557.59;5069891;28;20624;-69
2021/10/27 15:44:33;;;;;;;;;;;;;;;12.89;100.00;101547.66;5070383;28;20020;-68
2021/10/27 15:52:27;;;;;;;;;;;;;;;12.85;100.00;101546.16;5091027;28;20280;-67
2021/10/27 15:54:55;;;;;;;;;;;;;;;12.82;100.00;101541.81;5071524;28;20060;-67